Time;durP1;ratioP1;P1;durP2;ratioP2;P2;SDS_P1;SDS_P2;PMS_P1;PMS_P2;Temp;Humidity;BMP_temperature;BMP_pressure;BME280_temperature;BME280_humidity;BME280_pressure;Samples;Min_cycle;Max_cycle;Signal;HPM_P1;HPM_P2
2023/01/01 00:01:15;;;;;;;41.58;37.10;;;18.70;64.70;;;;;;5054745;28;20206;-66
2023/01/01 00:03:42;;;;;;;42.35;38.10;;;18.70;64.70;;;;;;5055152;28;20230;-67
2023/01/01 00:06:12;;;;;;;44.63;40.00;;;18.70;64.60;;;;;;5042096;28;20179;-66
2023/01/01 00:08:39;;;;;;;41.72;37.53;;;18.70;64.60;;;;;;5043131;28;20182;-67
2023/01/01 00:11:08;;;;;;;42.83;38.45;;;18.70;64.60;;;;;;5055243;28;20698;-66
2023/01/01 00:13:37;;;;;;;44.42;39.78;;;18.70;64.60;;;;;;5037289;28;20178;-66
2023/01/01 00:16:07;;;;;;;42.88;38.28;;;18.70;64.60;;;;;;5047160;28;20196;-67
2023/01/01 00:18:34;;;;;;;42.47;38.10;;;18.70;64.60;;;;;;5030775;28;20277;-66
2023/01/01 00:21:10;;;;;;;41.55;37.25;;;18.70;64.60;;;;;;5046415;28;20326;-67
2023/01/01 00:23:36;;;;;;;40.05;35.95;;;18.60;64.50;;;;;;5045949;28;20217;-67
2023/01/01 00:26:10;;;;;;;39.80;35.88;;;18.70;64.60;;;;;;5050758;28;20278;-67
2023/01/01 00:28:36;;;;;;;40.70;36.40;;;18.60;64.50;;;;;;5046879;28;20187;-67
2023/01/01 00:31:11;;;;;;;41.38;36.20;;;18.70;64.60;;;;;;5046453;28;20217;-67
2023/01/01 00:33:37;;;;;;;39.88;35.97;;;18.70;64.60;;;;;;5043445;28;20202;-67
2023/01/01 00:36:15;;;;;;;38.85;34.92;;;18.60;64.50;;;;;;5047900;28;20192;-66
2023/01/01 00:38:44;;;;;;;38.78;34.63;;;18.60;64.50;;;;;;5032702;28;20195;-66
2023/01/01 00:41:12;;;;;;;36.33;32.72;;;18.60;64.50;;;;;;5048846;28;20231;-66
2023/01/01 00:43:38;;;;;;;36.60;32.88;;;18.70;64.60;;;;;;5047002;28;20290;-66
2023/01/01 00:46:04;;;;;;;35.95;32.13;;;18.70;64.60;;;;;;5037175;28;20361;-66
2023/01/01 00:48:31;;;;;;;36.10;32.33;;;18.60;64.50;;;;;;5039691;28;20617;-66
2023/01/01 00:50:57;;;;;;;36.05;32.45;;;18.60;64.50;;;;;;5050867;28;20206;-66
2023/01/01 00:53:22;;;;;;;35.10;31.73;;;18.60;64.40;;;;;;5044325;28;20278;-66
2023/01/01 00:55:50;;;;;;;34.38;30.88;;;18.60;64.50;;;;;;5042202;28;20274;-66
2023/01/01 00:58:18;;;;;;;33.67;30.35;;;18.70;64.50;;;;;;5046581;28;20187;-66
2023/01/01 01:00:45;;;;;;;32.88;29.63;;;18.60;64.40;;;;;;5053721;28;20210;-66
2023/01/01 01:03:26;;;;;;;33.00;29.52;;;18.70;64.50;;;;;;5045602;28;20218;-66
2023/01/01 01:06:02;;;;;;;32.63;29.38;;;18.60;64.40;;;;;;5044519;28;20729;-66
2023/01/01 01:08:31;;;;;;;31.67;28.73;;;18.60;64.40;;;;;;5034252;28;20187;-66
2023/01/01 01:11:11;;;;;;;31.83;28.63;;;18.60;64.40;;;;;;5050254;28;20207;-66
2023/01/01 01:13:39;;;;;;;30.65;27.65;;;18.70;64.50;;;;;;5035177;28;20191;-66
2023/01/01 01:16:12;;;;;;;32.10;28.70;;;18.60;64.40;;;;;;5052854;28;20199;-66
2023/01/01 01:18:37;;;;;;;29.33;26.50;;;18.60;64.40;;;;;;5053693;28;20277;-66
2023/01/01 01:21:04;;;;;;;29.25;26.35;;;18.60;64.40;;;;;;5044016;28;20309;-66
2023/01/01 01:23:31;;;;;;;28.85;26.08;;;18.60;64.40;;;;;;5033875;28;20219;-66
2023/01/01 01:26:14;;;;;;;28.58;25.77;;;18.60;64.40;;;;;;5033358;28;20201;-66
2023/01/01 01:28:40;;;;;;;27.67;24.77;;;18.60;64.40;;;;;;5058365;28;20250;-66
2023/01/01 01:31:06;;;;;;;26.45;23.80;;;18.70;64.50;;;;;;5033482;28;20241;-66
2023/01/01 01:33:32;;;;;;;26.50;23.92;;;18.60;64.40;;;;;;5048202;28;20214;-66
2023/01/01 01:35:58;;;;;;;26.85;24.15;;;18.60;64.40;;;;;;5043456;28;20266;-66
2023/01/01 01:38:24;;;;;;;26.10;23.70;;;18.60;64.40;;;;;;5041902;28;20278;-66
2023/01/01 01:40:50;;;;;;;26.33;23.73;;;18.60;64.40;;;;;;5016485;28;20360;-66
2023/01/01 01:43:31;;;;;;;25.15;22.65;;;18.60;64.40;;;;;;5033500;28;20222;-66
2023/01/01 01:46:06;;;;;;;24.73;22.23;;;18.60;64.40;;;;;;5034374;28;20198;-66
2023/01/01 01:48:39;;;;;;;24.95;22.42;;;18.60;64.40;;;;;;5039208;28;20188;-66
2023/01/01 01:51:06;;;;;;;24.67;22.17;;;18.60;64.40;;;;;;5033042;28;20211;-66
2023/01/01 01:53:38;;;;;;;24.63;21.52;;;18.60;64.50;;;;;;5033312;28;20191;-67
2023/01/01 01:56:10;;;;;;;22.52;20.35;;;18.60;64.40;;;;;;5032973;28;20194;-66
2023/01/01 01:58:36;;;;;;;23.45;21.15;;;18.60;64.40;;;;;;5039808;28;20187;-67
2023/01/01 02:01:02;;;;;;;23.55;21.15;;;18.60;64.40;;;;;;5053593;28;20219;-66
2023/01/01 02:03:56;;;;;;;22.80;20.50;;;18.60;64.40;;;;;;5052735;28;20215;-66
2023/01/01 02:06:23;;;;;;;20.90;18.88;;;18.60;64.40;;;;;;5041457;28;20184;-66
2023/01/01 02:08:50;;;;;;;22.00;19.77;;;18.60;64.40;;;;;;5032766;28;20737;-66
2023/01/01 02:11:16;;;;;;;21.70;19.70;;;18.60;64.40;;;;;;5053130;28;20743;-66
2023/01/01 02:13:42;;;;;;;21.08;18.98;;;18.60;64.40;;;;;;5045379;28;20188;-66
2023/01/01 02:16:36;;;;;;;21.33;19.33;;;18.60;64.40;;;;;;5040843;28;20195;-66
2023/01/01 02:19:25;;;;;;;21.70;19.50;;;18.60;64.30;;;;;;5050862;28;20198;-66
2023/01/01 02:22:36;;;;;;;21.98;19.77;;;18.60;64.40;;;;;;5069026;28;20209;-65
2023/01/01 02:25:55;;;;;;;20.38;18.35;;;18.60;64.40;;;;;;5068937;28;20243;-66
2023/01/01 02:28:58;;;;;;;19.25;17.38;;;18.60;64.30;;;;;;5048342;28;20210;-66
2023/01/01 02:31:30;;;;;;;19.67;17.67;;;18.60;64.30;;;;;;5032607;28;20297;-66
2023/01/01 02:34:02;;;;;;;19.60;17.60;;;18.60;64.40;;;;;;5056750;28;20195;-66
2023/01/01 02:36:31;;;;;;;18.58;16.77;;;18.60;64.40;;;;;;5048887;28;20195;-66
2023/01/01 02:39:01;;;;;;;18.42;16.65;;;18.60;64.30;;;;;;5049260;28;20278;-67
2023/01/01 02:41:38;;;;;;;18.40;16.65;;;18.60;64.40;;;;;;5043503;28;20206;-65
2023/01/01 02:44:04;;;;;;;16.45;14.88;;;18.60;64.40;;;;;;5035750;28;20218;-66
2023/01/01 02:46:33;;;;;;;17.08;15.48;;;18.60;64.40;;;;;;5043770;28;20170;-65
2023/01/01 02:49:01;;;;;;;17.63;15.93;;;18.60;64.40;;;;;;5035613;28;20780;-66
2023/01/01 02:52:02;;;;;;;16.90;15.30;;;18.60;64.30;;;;;;5051887;28;20285;-66
2023/01/01 02:54:49;;;;;;;16.10;14.60;;;18.60;64.40;;;;;;5066744;28;20202;-66
2023/01/01 02:57:38;;;;;;;16.52;14.98;;;18.60;64.40;;;;;;5043585;28;20233;-66
2023/01/01 03:00:30;;;;;;;16.02;14.52;;;18.60;64.40;;;;;;5052254;28;20206;-65
2023/01/01 03:03:24;;;;;;;15.38;13.95;;;18.60;64.40;;;;;;5068501;28;20849;-66
2023/01/01 03:06:26;;;;;;;16.23;14.57;;;18.60;64.40;;;;;;5068301;28;20248;-66
2023/01/01 03:09:27;;;;;;;15.82;14.23;;;18.60;64.40;;;;;;5023604;28;20238;-66
2023/01/01 03:12:12;;;;;;;16.25;14.55;;;18.60;64.40;;;;;;5051351;28;20186;-66
2023/01/01 03:15:05;;;;;;;14.93;13.43;;;18.60;64.40;;;;;;5051526;28;20191;-66
2023/01/01 03:17:46;;;;;;;14.75;13.40;;;18.60;64.40;;;;;;5043384;28;20197;-66
2023/01/01 03:20:21;;;;;;;14.80;13.40;;;18.60;64.40;;;;;;5034437;28;20223;-66
2023/01/01 03:22:51;;;;;;;14.45;12.60;;;18.60;64.40;;;;;;5044236;28;20199;-66
2023/01/01 03:25:26;;;;;;;13.60;12.30;;;18.60;64.40;;;;;;5052212;28;20241;-66
2023/01/01 03:28:00;;;;;;;13.50;12.20;;;18.60;64.40;;;;;;5026772;28;20269;-66
2023/01/01 03:30:28;;;;;;;13.85;12.52;;;18.60;64.40;;;;;;5043608;28;20693;-66
2023/01/01 03:33:07;;;;;;;12.70;11.50;;;18.50;64.20;;;;;;5042655;28;20218;-65
2023/01/01 03:35:46;;;;;;;12.55;11.35;;;18.60;64.40;;;;;;5051070;28;20194;-66
2023/01/01 03:38:25;;;;;;;12.65;11.45;;;18.60;64.40;;;;;;5051156;28;20186;-65
2023/01/01 03:41:00;;;;;;;13.43;12.13;;;18.60;64.40;;;;;;5050814;28;20277;-66
2023/01/01 03:44:13;;;;;;;13.32;12.07;;;18.60;64.40;;;;;;5035564;28;20689;-66
2023/01/01 03:46:40;;;;;;;12.75;11.45;;;18.60;64.40;;;;;;5025501;28;20195;-66
2023/01/01 03:49:10;;;;;;;12.10;10.93;;;18.60;64.40;;;;;;5049078;28;20208;-65
2023/01/01 03:52:11;;;;;;;12.68;11.48;;;18.60;64.40;;;;;;5051207;28;20229;-65
2023/01/01 03:55:07;;;;;;;12.38;11.23;;;18.60;64.40;;;;;;5036960;28;20249;-66
2023/01/01 03:57:59;;;;;;;11.55;10.45;;;18.60;64.30;;;;;;5061120;28;20639;-66
2023/01/01 04:00:39;;;;;;;11.65;10.63;;;18.60;64.40;;;;;;5059450;28;20214;-65
2023/01/01 04:03:27;;;;;;;10.60;9.60;;;18.60;64.30;;;;;;5033888;28;20221;-66
2023/01/01 04:05:53;;;;;;;12.18;10.98;;;18.60;64.30;;;;;;5043080;28;20275;-66
2023/01/01 04:08:20;;;;;;;11.00;10.00;;;18.60;64.30;;;;;;5050811;28;20643;-66
2023/01/01 04:10:52;;;;;;;11.68;10.57;;;18.60;64.30;;;;;;5050540;28;20198;-66
2023/01/01 04:13:18;;;;;;;10.90;9.80;;;18.60;64.30;;;;;;5052057;28;20205;-66
2023/01/01 04:15:43;;;;;;;11.05;10.05;;;18.60;64.30;;;;;;5056952;28;20640;-66
2023/01/01 04:18:09;;;;;;;11.43;10.32;;;18.50;64.20;;;;;;5051129;28;20222;-66
2023/01/01 04:20:35;;;;;;;10.55;9.55;;;18.60;64.30;;;;;;5074260;22;20229;-66
2023/01/01 04:23:02;;;;;;;10.65;9.63;;;18.60;64.30;;;;;;5066371;28;20217;-67
2023/01/01 04:25:28;;;;;;;10.65;9.55;;;18.60;64.30;;;;;;5049578;28;20270;-68
2023/01/01 04:27:57;;;;;;;10.65;9.55;;;18.50;64.20;;;;;;5071572;28;20221;-68
2023/01/01 04:30:23;;;;;;;10.57;9.57;;;18.60;64.30;;;;;;5042682;28;20203;-67
2023/01/01 04:32:49;;;;;;;9.90;8.90;;;18.50;64.20;;;;;;5034544;28;20549;-67
2023/01/01 04:35:15;;;;;;;9.80;8.90;;;18.50;64.20;;;;;;5053528;28;20175;-67
2023/01/01 04:37:44;;;;;;;9.30;8.38;;;18.50;64.10;;;;;;5013140;28;20703;-66
2023/01/01 04:40:12;;;;;;;9.93;8.98;;;18.60;65.00;;;;;;5019220;28;20206;-66
2023/01/01 04:42:38;;;;;;;9.82;8.90;;;18.50;64.10;;;;;;5037745;28;20232;-66
2023/01/01 04:45:05;;;;;;;9.82;8.93;;;18.50;64.20;;;;;;5053986;28;20190;-66
2023/01/01 04:47:31;;;;;;;9.23;8.43;;;18.60;64.20;;;;;;5054094;28;20225;-67
2023/01/01 04:49:56;;;;;;;9.43;8.52;;;18.60;64.30;;;;;;5029128;28;20195;-67
2023/01/01 04:52:22;;;;;;;9.25;8.45;;;18.60;64.30;;;;;;5051803;28;20274;-65
2023/01/01 04:54:48;;;;;;;8.73;7.93;;;18.60;64.30;;;;;;5034359;28;20248;-66
2023/01/01 04:57:14;;;;;;;9.57;8.68;;;18.60;64.40;;;;;;5027680;28;20190;-66
2023/01/01 04:59:40;;;;;;;8.70;7.90;;;18.50;64.10;;;;;;5054138;28;20273;-67
2023/01/01 05:02:06;;;;;;;8.55;7.75;;;18.50;64.10;;;;;;5061843;28;20269;-67
2023/01/01 05:04:32;;;;;;;8.52;7.82;;;18.60;64.20;;;;;;5034178;28;20728;-67
2023/01/01 05:06:58;;;;;;;8.73;7.88;;;18.60;64.20;;;;;;5033664;28;20182;-67
2023/01/01 05:09:23;;;;;;;8.90;8.10;;;18.50;64.10;;;;;;5053480;28;20190;-66
2023/01/01 05:11:49;;;;;;;9.40;8.50;;;18.50;64.10;;;;;;5053557;28;20252;-66
2023/01/01 05:14:15;;;;;;;8.70;7.90;;;18.50;64.10;;;;;;5053784;28;20198;-66
2023/01/01 05:16:40;;;;;;;8.30;7.50;;;18.50;64.10;;;;;;5031800;28;20273;-66
2023/01/01 05:19:07;;;;;;;9.52;8.63;;;18.50;64.10;;;;;;5050801;28;20187;-67
2023/01/01 05:21:39;;;;;;;8.50;7.70;;;18.50;64.10;;;;;;5040594;28;20214;-66
2023/01/01 05:24:08;;;;;;;8.35;7.65;;;18.50;64.90;;;;;;5033144;28;20301;-65
2023/01/01 05:26:39;;;;;;;8.57;7.78;;;18.50;64.10;;;;;;5033111;28;20544;-67
2023/01/01 05:29:05;;;;;;;8.30;7.50;;;18.50;64.10;;;;;;5043281;28;20193;-67
2023/01/01 05:31:34;;;;;;;8.32;7.63;;;18.50;64.10;;;;;;5032778;28;20199;-66
2023/01/01 05:34:02;;;;;;;8.88;8.07;;;18.50;64.10;;;;;;5030134;28;20233;-67
2023/01/01 05:36:37;;;;;;;8.20;7.50;;;18.60;64.20;;;;;;5026039;28;20179;-66
2023/01/01 05:39:04;;;;;;;8.05;7.25;;;18.50;64.10;;;;;;5030003;28;20191;-66
2023/01/01 05:41:32;;;;;;;8.07;7.25;;;18.50;64.10;;;;;;5042272;28;20207;-66
2023/01/01 05:44:02;;;;;;;8.10;7.40;;;18.50;64.10;;;;;;5016976;28;20598;-66
2023/01/01 05:46:27;;;;;;;7.80;7.10;;;18.50;64.10;;;;;;5028447;28;20273;-66
2023/01/01 05:48:54;;;;;;;7.60;6.90;;;18.50;64.10;;;;;;5019874;28;20282;-66
2023/01/01 05:51:26;;;;;;;8.15;7.35;;;18.50;64.10;;;;;;5036267;28;20209;-66
2023/01/01 05:53:56;;;;;;;8.15;7.35;;;18.50;64.10;;;;;;5019947;28;20212;-67
2023/01/01 05:56:22;;;;;;;7.75;7.07;;;18.50;64.10;;;;;;5052917;28;20198;-66
2023/01/01 05:58:48;;;;;;;8.10;7.30;;;18.50;64.10;;;;;;5036596;28;20273;-65
2023/01/01 06:01:22;;;;;;;7.15;6.55;;;18.50;64.10;;;;;;5044282;28;20297;-67
2023/01/01 06:03:49;;;;;;;7.47;6.78;;;18.50;64.90;;;;;;5056047;28;20221;-66
2023/01/01 06:06:19;;;;;;;7.40;6.70;;;18.50;64.10;;;;;;5019730;28;20191;-66
2023/01/01 06:08:57;;;;;;;7.47;6.78;;;18.50;64.10;;;;;;5036059;28;20282;-66
2023/01/01 06:11:24;;;;;;;8.07;7.28;;;18.50;64.10;;;;;;5050042;28;20313;-67
2023/01/01 06:13:55;;;;;;;7.88;7.07;;;18.50;64.10;;;;;;5011586;28;20199;-66
2023/01/01 06:16:22;;;;;;;7.65;6.88;;;18.50;64.00;;;;;;5015538;28;20199;-66
2023/01/01 06:18:48;;;;;;;7.35;6.65;;;18.50;64.10;;;;;;5030637;28;20304;-66
2023/01/01 06:21:21;;;;;;;7.45;6.75;;;18.50;64.00;;;;;;5034139;28;20230;-67
2023/01/01 06:23:47;;;;;;;7.97;7.20;;;18.50;64.10;;;;;;5030209;28;20218;-66
2023/01/01 06:26:22;;;;;;;7.35;6.65;;;18.50;64.00;;;;;;5027479;28;20187;-66
2023/01/01 06:28:49;;;;;;;7.30;6.57;;;18.50;64.00;;;;;;5052474;28;20193;-66
2023/01/01 06:31:18;;;;;;;6.72;6.13;;;18.50;64.00;;;;;;5019226;28;20281;-66
2023/01/01 06:33:45;;;;;;;6.75;6.15;;;18.50;64.00;;;;;;5035985;28;20226;-67
2023/01/01 06:36:14;;;;;;;7.60;6.90;;;18.50;64.00;;;;;;5043923;28;20194;-67
2023/01/01 06:38:44;;;;;;;7.00;6.30;;;18.50;64.00;;;;;;5028704;28;20189;-67
2023/01/01 06:41:18;;;;;;;6.60;6.00;;;18.50;64.00;;;;;;5027103;28;20218;-66
2023/01/01 06:43:44;;;;;;;7.07;6.38;;;18.50;64.10;;;;;;5032197;28;20230;-67
2023/01/01 06:46:19;;;;;;;6.63;6.00;;;18.50;64.00;;;;;;5030050;28;20188;-67
2023/01/01 06:48:48;;;;;;;7.07;6.47;;;18.50;64.00;;;;;;5051646;28;20234;-66
2023/01/01 06:51:18;;;;;;;6.13;5.63;;;18.50;64.00;;;;;;5065257;28;20211;-67
2023/01/01 06:53:45;;;;;;;6.63;6.00;;;18.50;64.00;;;;;;5046894;28;20197;-67
2023/01/01 06:56:12;;;;;;;6.72;6.13;;;18.50;64.00;;;;;;5010542;28;20640;-67
2023/01/01 06:58:38;;;;;;;6.57;5.88;;;18.50;64.00;;;;;;5035055;28;20206;-67
2023/01/01 07:01:16;;;;;;;5.95;5.35;;;18.50;64.00;;;;;;5017774;28;20244;-67
2023/01/01 07:03:44;;;;;;;6.55;5.95;;;18.50;64.00;;;;;;5012356;28;20210;-66
2023/01/01 07:06:10;;;;;;;6.43;5.80;;;18.50;64.00;;;;;;5035184;28;20190;-68
2023/01/01 07:08:36;;;;;;;6.70;6.10;;;18.50;64.80;;;;;;5044550;28;20248;-68
2023/01/01 07:11:02;;;;;;;6.03;5.47;;;18.50;64.00;;;;;;5034816;28;20206;-67
2023/01/01 07:13:29;;;;;;;6.40;5.80;;;18.50;64.00;;;;;;5026883;28;20241;-67
2023/01/01 07:15:55;;;;;;;6.30;5.70;;;18.50;64.00;;;;;;5036806;28;20226;-67
2023/01/01 07:18:23;;;;;;;6.50;5.90;;;18.50;64.00;;;;;;5024909;28;20231;-66
2023/01/01 07:20:56;;;;;;;5.78;5.28;;;18.50;64.00;;;;;;5045357;28;20219;-66
2023/01/01 07:23:23;;;;;;;6.00;5.40;;;18.50;64.00;;;;;;5033212;28;20268;-66
2023/01/01 07:25:51;;;;;;;5.80;5.25;;;18.50;64.00;;;;;;5051364;28;20661;-66
2023/01/01 07:28:17;;;;;;;5.90;5.40;;;18.50;64.00;;;;;;5031168;28;20635;-68
2023/01/01 07:30:43;;;;;;;6.22;5.63;;;18.50;64.00;;;;;;5011648;28;20202;-67
2023/01/01 07:33:18;;;;;;;5.93;5.38;;;18.40;63.90;;;;;;5056509;28;20285;-67
2023/01/01 07:35:44;;;;;;;6.05;5.55;;;18.50;64.00;;;;;;5014902;28;20240;-66
2023/01/01 07:38:10;;;;;;;5.40;4.93;;;18.50;64.00;;;;;;5012038;28;20267;-67
2023/01/01 07:40:36;;;;;;;5.50;4.97;;;18.50;64.00;;;;;;5051953;28;20218;-65
2023/01/01 07:43:02;;;;;;;5.20;4.70;;;18.50;64.00;;;;;;5018907;28;20215;-66
2023/01/01 07:45:28;;;;;;;5.45;4.95;;;18.50;64.00;;;;;;5025659;28;20241;-67
2023/01/01 07:47:57;;;;;;;5.07;4.63;;;18.50;64.10;;;;;;5047025;28;20223;-67
2023/01/01 07:50:29;;;;;;;5.63;5.13;;;18.50;64.00;;;;;;5040906;28;20199;-66
2023/01/01 07:52:55;;;;;;;5.20;4.70;;;18.50;64.00;;;;;;5014594;28;20290;-67
2023/01/01 07:55:21;;;;;;;5.18;4.78;;;18.50;64.00;;;;;;5050211;28;20256;-67
2023/01/01 07:57:48;;;;;;;5.93;5.32;;;18.50;64.00;;;;;;5034208;28;20196;-67
2023/01/01 08:00:20;;;;;;;5.25;4.75;;;18.50;64.00;;;;;;5050199;28;20202;-66
2023/01/01 08:02:45;;;;;;;5.22;4.72;;;18.50;64.00;;;;;;5029003;28;20187;-67
2023/01/01 08:05:11;;;;;;;5.20;4.70;;;18.50;64.10;;;;;;5047889;28;20259;-66
2023/01/01 08:07:37;;;;;;;5.28;4.80;;;18.50;64.00;;;;;;5050986;28;20284;-67
2023/01/01 08:10:07;;;;;;;4.95;4.50;;;18.50;64.00;;;;;;5034096;28;20214;-67
2023/01/01 08:12:33;;;;;;;4.95;4.55;;;18.50;64.00;;;;;;5022629;28;20187;-67
2023/01/01 08:14:58;;;;;;;5.10;4.68;;;18.50;64.10;;;;;;5044201;28;20202;-67
2023/01/01 08:17:24;;;;;;;5.10;4.60;;;18.50;64.10;;;;;;5039152;28;20256;-67
2023/01/01 08:19:51;;;;;;;5.03;4.60;;;18.50;64.10;;;;;;5024506;28;20286;-67
2023/01/01 08:22:17;;;;;;;4.72;4.32;;;18.50;64.10;;;;;;5039932;28;20195;-67
2023/01/01 08:24:43;;;;;;;5.10;4.60;;;18.50;64.10;;;;;;5048005;28;20221;-67
2023/01/01 08:27:16;;;;;;;4.75;4.28;;;18.50;64.10;;;;;;5030966;28;20187;-66
2023/01/01 08:29:43;;;;;;;4.57;4.18;;;18.50;64.10;;;;;;5039972;28;20182;-66
2023/01/01 08:32:10;;;;;;;4.75;4.35;;;18.50;64.10;;;;;;5022382;28;20283;-66
2023/01/01 08:34:36;;;;;;;4.45;4.05;;;18.50;64.10;;;;;;5040192;28;20182;-67
2023/01/01 08:37:02;;;;;;;4.80;4.40;;;18.50;64.10;;;;;;5029287;28;20328;-67
2023/01/01 08:39:28;;;;;;;4.47;4.10;;;18.50;64.10;;;;;;5025489;28;20570;-67
2023/01/01 08:41:54;;;;;;;4.35;4.00;;;18.50;64.10;;;;;;5033709;28;20222;-67
2023/01/01 08:44:20;;;;;;;4.65;4.25;;;18.50;64.10;;;;;;5030300;28;20211;-67
2023/01/01 08:46:46;;;;;;;4.43;4.03;;;18.50;64.10;;;;;;5043755;28;20262;-68
2023/01/01 08:49:11;;;;;;;4.75;4.35;;;18.50;64.10;;;;;;5050471;28;20187;-67
2023/01/01 08:51:37;;;;;;;4.32;3.95;;;18.50;64.10;;;;;;5050192;28;20202;-67
2023/01/01 08:54:05;;;;;;;5.57;4.53;;;18.50;64.10;;;;;;5030323;28;20253;-66
2023/01/01 08:56:30;;;;;;;4.22;3.83;;;18.50;64.20;;;;;;5039745;28;20188;-67
2023/01/01 08:58:56;;;;;;;4.13;3.78;;;18.50;64.10;;;;;;5025710;28;20226;-67
2023/01/01 09:01:24;;;;;;;4.50;4.10;;;18.50;64.10;;;;;;5018471;28;20219;-67
2023/01/01 09:03:50;;;;;;;3.85;3.55;;;18.50;64.20;;;;;;5037614;28;20587;-67
2023/01/01 09:06:16;;;;;;;4.22;3.90;;;18.50;64.20;;;;;;5037512;28;20200;-68
2023/01/01 09:08:42;;;;;;;4.07;3.70;;;18.50;64.20;;;;;;5045599;28;20174;-67
2023/01/01 09:11:27;;;;;;;4.68;4.00;;;18.50;64.20;;;;;;5050772;28;20203;-67
2023/01/01 09:13:53;;;;;;;4.32;3.92;;;18.50;64.20;;;;;;5017571;28;20194;-66
2023/01/01 09:16:20;;;;;;;4.55;4.15;;;18.50;64.10;;;;;;5032276;28;20673;-67
2023/01/01 09:18:46;;;;;;;4.10;3.80;;;18.50;64.20;;;;;;5016288;28;20187;-66
2023/01/01 09:21:12;;;;;;;4.28;3.80;;;18.50;64.10;;;;;;5050039;28;20222;-66
2023/01/01 09:23:38;;;;;;;4.03;3.67;;;18.50;64.20;;;;;;5025284;28;20215;-67
2023/01/01 09:26:07;;;;;;;3.90;3.60;;;18.50;64.10;;;;;;5012755;28;20184;-67
2023/01/01 09:28:34;;;;;;;3.85;3.55;;;18.50;64.20;;;;;;5036039;28;20194;-67
2023/01/01 09:31:00;;;;;;;4.00;3.70;;;18.60;64.30;;;;;;5022393;28;20207;-66
2023/01/01 09:33:27;;;;;;;4.18;3.88;;;18.60;64.30;;;;;;5033814;28;20195;-67
2023/01/01 09:35:52;;;;;;;4.20;3.80;;;18.50;64.20;;;;;;5017127;28;20213;-67
2023/01/01 09:38:19;;;;;;;4.43;4.03;;;18.60;64.40;;;;;;5034632;28;20567;-66
2023/01/01 09:41:08;;;;;;;3.92;3.60;;;18.50;64.20;;;;;;5025841;28;20315;-67
2023/01/01 09:44:08;;;;;;;4.95;3.70;;;18.60;64.40;;;;;;5052584;28;20210;-67
2023/01/01 09:46:35;;;;;;;4.10;3.80;;;18.50;64.30;;;;;;5034387;28;20198;-67
2023/01/01 09:49:36;;;;;;;3.67;3.38;;;18.60;64.40;;;;;;5031501;28;20198;-66
2023/01/01 09:52:04;;;;;;;3.95;3.55;;;18.50;64.20;;;;;;5039595;28;20206;-67
2023/01/01 09:54:50;;;;;;;4.05;3.70;;;18.60;64.40;;;;;;5019929;28;20186;-67
2023/01/01 09:57:16;;;;;;;3.55;3.25;;;18.60;64.40;;;;;;5016573;28;20271;-67
2023/01/01 09:59:43;;;;;;;3.70;2.97;;;18.60;64.40;;;;;;5016525;28;20198;-66
2023/01/01 10:02:37;;;;;;;4.03;3.63;;;18.60;64.50;;;;;;5016331;28;20194;-67
2023/01/01 10:05:31;;;;;;;3.70;3.40;;;18.60;64.50;;;;;;5011585;28;20225;-67
2023/01/01 10:08:32;;;;;;;3.53;3.22;;;18.60;64.50;;;;;;5030451;28;20274;-67
2023/01/01 10:11:16;;;;;;;4.03;3.70;;;18.60;64.50;;;;;;5045936;28;20217;-67
2023/01/01 10:13:45;;;;;;;3.67;3.38;;;18.60;64.50;;;;;;5024820;28;20198;-67
2023/01/01 10:16:43;;;;;;;4.32;3.50;;;18.60;64.50;;;;;;5032254;28;20186;-67
2023/01/01 10:19:35;;;;;;;3.30;3.05;;;18.60;64.50;;;;;;5024135;28;20241;-66
2023/01/01 10:22:10;;;;;;;4.00;3.58;;;18.60;64.50;;;;;;5086330;22;20230;-71
2023/01/01 10:24:47;;;;;;;4.97;3.63;;;18.60;64.50;;;;;;5035544;28;20304;-70
2023/01/01 10:27:28;;;;;;;3.90;3.60;;;18.60;64.50;;;;;;5028594;28;20222;-71
2023/01/01 10:29:57;;;;;;;4.50;3.20;;;18.60;64.50;;;;;;5065940;28;20191;-71
2023/01/01 10:32:31;;;;;;;3.47;3.10;;;18.60;64.60;;;;;;5050012;28;20199;-71
2023/01/01 10:34:59;;;;;;;3.63;3.22;;;18.60;64.50;;;;;;5035596;28;20193;-72
2023/01/01 10:37:34;;;;;;;3.55;3.25;;;18.60;64.50;;;;;;5053334;28;20187;-72
2023/01/01 10:40:26;;;;;;;4.03;3.40;;;18.60;64.50;;;;;;5051950;28;20194;-71
2023/01/01 10:43:00;;;;;;;3.47;3.17;;;18.60;64.60;;;;;;5051304;28;20206;-72
2023/01/01 10:45:47;;;;;;;4.13;3.30;;;18.60;64.60;;;;;;5032768;28;20182;-72
2023/01/01 10:48:23;;;;;;;3.40;3.10;;;18.60;64.60;;;;;;5026006;28;20213;-72
2023/01/01 10:51:00;;;;;;;3.88;3.50;;;18.60;64.50;;;;;;5077438;28;20217;-72
2023/01/01 10:53:51;;;;;;;3.47;3.10;;;18.60;64.60;;;;;;5043736;28;20572;-71
2023/01/01 10:56:22;;;;;;;3.72;3.30;;;18.60;64.70;;;;;;5051797;28;20221;-71
2023/01/01 10:58:57;;;;;;;3.33;3.03;;;18.60;64.60;;;;;;5044118;28;20225;-71
2023/01/01 11:01:31;;;;;;;4.25;3.10;;;18.60;64.60;;;;;;5051282;28;20210;-71
2023/01/01 11:04:02;;;;;;;3.28;2.97;;;18.60;64.60;;;;;;5035054;28;20207;-71
2023/01/01 11:06:57;;;;;;;3.10;2.80;;;18.60;64.60;;;;;;5047063;28;20194;-71
2023/01/01 11:09:35;;;;;;;3.40;3.15;;;18.60;64.60;;;;;;5013833;28;20260;-71
2023/01/01 11:12:16;;;;;;;4.38;3.05;;;18.60;64.60;;;;;;5068189;28;20260;-71
2023/01/01 11:14:54;;;;;;;3.50;3.20;;;18.60;64.60;;;;;;5051809;28;20212;-71
2023/01/01 11:17:34;;;;;;;3.20;2.90;;;18.60;64.60;;;;;;5035253;28;20179;-71
2023/01/01 11:20:01;;;;;;;3.38;3.08;;;18.60;64.60;;;;;;5050810;28;20243;-71
2023/01/01 11:22:51;;;;;;;3.33;2.60;;;18.60;64.60;;;;;;5052149;28;20202;-71
2023/01/01 11:25:28;;;;;;;2.97;2.70;;;18.60;64.60;;;;;;5034768;28;20187;-71
2023/01/01 11:28:19;;;;;;;3.00;2.80;;;18.60;64.60;;;;;;5052540;28;20192;-71
2023/01/01 11:31:02;;;;;;;3.45;3.17;;;18.60;64.60;;;;;;5034317;28;20210;-71
2023/01/01 11:33:35;;;;;;;4.40;3.00;;;18.60;64.70;;;;;;5043291;28;20617;-71
2023/01/01 11:36:02;;;;;;;4.63;3.10;;;18.60;64.70;;;;;;5045948;28;20246;-71
2023/01/01 11:38:28;;;;;;;3.63;3.33;;;18.60;64.60;;;;;;5029437;28;20183;-71
2023/01/01 11:41:00;;;;;;;4.07;2.97;;;18.70;64.70;;;;;;5034631;28;20202;-72
2023/01/01 11:43:27;;;;;;;3.15;2.70;;;18.60;64.60;;;;;;5050978;28;20260;-71
2023/01/01 11:45:56;;;;;;;4.32;3.20;;;18.60;64.60;;;;;;5051255;28;20206;-71
2023/01/01 11:48:30;;;;;;;3.17;2.55;;;18.70;64.80;;;;;;5050173;28;20186;-72
2023/01/01 11:51:10;;;;;;;3.38;2.50;;;18.70;64.80;;;;;;5043523;28;20206;-71
2023/01/01 11:53:41;;;;;;;2.78;2.58;;;18.60;64.70;;;;;;5049066;28;20248;-71
2023/01/01 11:56:22;;;;;;;2.95;2.72;;;18.60;64.70;;;;;;5042022;28;20195;-72
2023/01/01 11:58:57;;;;;;;2.95;2.42;;;18.70;64.80;;;;;;5042753;28;20247;-71
2023/01/01 12:01:51;;;;;;;3.13;2.83;;;18.60;64.70;;;;;;5042268;28;20222;-71
2023/01/01 12:04:32;;;;;;;2.90;2.58;;;18.60;64.70;;;;;;5050738;28;20217;-71
2023/01/01 12:07:14;;;;;;;3.10;2.40;;;18.70;64.80;;;;;;5047147;28;20183;-71
2023/01/01 12:10:08;;;;;;;3.83;2.88;;;18.70;64.80;;;;;;5048179;28;20714;-71
2023/01/01 12:12:50;;;;;;;3.45;2.92;;;18.60;64.70;;;;;;5031983;28;20190;-71
2023/01/01 12:15:35;;;;;;;4.10;2.60;;;18.60;64.70;;;;;;5050732;28;20236;-71
2023/01/01 12:18:30;;;;;;;3.25;2.40;;;18.60;64.70;;;;;;5042907;28;20182;-71
2023/01/01 12:21:10;;;;;;;2.90;2.60;;;18.60;64.80;;;;;;5043163;28;20584;-72
2023/01/01 12:23:35;;;;;;;4.03;2.72;;;18.60;64.70;;;;;;5042130;28;20218;-71
2023/01/01 12:26:07;;;;;;;2.80;2.60;;;18.60;64.70;;;;;;5050546;28;20185;-71
2023/01/01 12:29:12;;;;;;;2.97;2.67;;;18.70;64.80;;;;;;5025527;28;20197;-72
2023/01/01 12:31:55;;;;;;;2.97;2.70;;;18.60;64.70;;;;;;5043282;28;20214;-71
2023/01/01 12:34:38;;;;;;;3.58;2.25;;;18.70;64.80;;;;;;5052413;28;20205;-71
2023/01/01 12:37:42;;;;;;;2.58;2.38;;;18.60;64.80;;;;;;5048212;28;20197;-71
2023/01/01 12:40:46;;;;;;;2.58;2.38;;;18.60;64.80;;;;;;5048399;28;20235;-71
2023/01/01 12:43:48;;;;;;;3.28;2.92;;;18.70;64.90;;;;;;5049293;28;20202;-71
2023/01/01 12:47:20;;;;;;;2.55;2.35;;;18.60;64.80;;;;;;5022793;28;20187;-71
2023/01/01 12:50:11;;;;;;;2.60;2.40;;;18.60;64.70;;;;;;5036385;28;20217;-72
2023/01/01 12:53:20;;;;;;;3.47;2.63;;;18.60;64.80;;;;;;5045886;28;20187;-71
2023/01/01 12:55:58;;;;;;;2.65;2.22;;;18.70;64.80;;;;;;5053983;28;20224;-71
2023/01/01 12:58:56;;;;;;;2.88;2.50;;;18.70;64.90;;;;;;5054311;28;20202;-71
2023/01/01 13:01:27;;;;;;;3.25;2.03;;;18.70;64.90;;;;;;5044304;28;20218;-71
2023/01/01 13:04:09;;;;;;;2.75;2.28;;;18.70;64.90;;;;;;5054029;28;20207;-71
2023/01/01 13:07:05;;;;;;;2.60;2.40;;;18.70;64.90;;;;;;5044724;28;20206;-71
2023/01/01 13:09:39;;;;;;;2.75;2.20;;;18.70;65.00;;;;;;5042633;28;20191;-71
2023/01/01 13:12:09;;;;;;;4.95;2.50;;;18.70;65.00;;;;;;5045539;28;20263;-72
2023/01/01 13:14:50;;;;;;;2.70;2.22;;;18.70;65.00;;;;;;5053629;28;20214;-72